sensor_id;sensor_type;location;lat;lon;timestamp;P1;durP1;ratioP1;P2;durP2;ratioP2
64244;SDS011;50584;29.058;-110.966;2022-10-16T00:01:22;6.05;;;2.00;;
64244;SDS011;50584;29.058;-110.966;2022-10-16T00:03:49;6.68;;;2.10;;
64244;SDS011;50584;29.058;-110.966;2022-10-16T00:06:15;7.68;;;2.85;;
64244;SDS011;50584;29.058;-110.966;2022-10-16T00:08:41;4.13;;;2.33;;
64244;SDS011;50584;29.058;-110.966;2022-10-16T00:11:09;7.68;;;3.03;;
64244;SDS011;50584;29.058;-110.966;2022-10-16T00:13:35;7.03;;;2.38;;
64244;SDS011;50584;29.058;-110.966;2022-10-16T00:16:02;5.88;;;2.50;;
64244;SDS011;50584;29.058;-110.966;2022-10-16T00:18:28;4.80;;;2.08;;
64244;SDS011;50584;29.058;-110.966;2022-10-16T00:20:55;4.07;;;2.05;;
64244;SDS011;50584;29.058;-110.966;2022-10-16T00:23:21;6.53;;;2.35;;
64244;SDS011;50584;29.058;-110.966;2022-10-16T00:25:56;7.80;;;2.10;;
64244;SDS011;50584;29.058;-110.966;2022-10-16T00:28:22;7.78;;;2.30;;
64244;SDS011;50584;29.058;-110.966;2022-10-16T00:30:48;5.60;;;2.10;;
64244;SDS011;50584;29.058;-110.966;2022-10-16T00:33:14;15.27;;;2.63;;
64244;SDS011;50584;29.058;-110.966;2022-10-16T00:35:39;8.00;;;2.85;;
64244;SDS011;50584;29.058;-110.966;2022-10-16T00:38:05;5.65;;;2.17;;
64244;SDS011;50584;29.058;-110.966;2022-10-16T00:40:31;10.88;;;2.38;;
64244;SDS011;50584;29.058;-110.966;2022-10-16T00:42:57;6.80;;;2.00;;
64244;SDS011;50584;29.058;-110.966;2022-10-16T00:45:23;4.00;;;2.72;;
64244;SDS011;50584;29.058;-110.966;2022-10-16T00:47:48;8.18;;;2.50;;
64244;SDS011;50584;29.058;-110.966;2022-10-16T00:50:37;7.18;;;2.10;;
64244;SDS011;50584;29.058;-110.966;2022-10-16T00:53:02;9.02;;;2.90;;
64244;SDS011;50584;29.058;-110.966;2022-10-16T00:55:28;4.53;;;2.25;;
64244;SDS011;50584;29.058;-110.966;2022-10-16T00:57:55;4.13;;;2.30;;
64244;SDS011;50584;29.058;-110.966;2022-10-16T01:00:22;5.20;;;2.20;;
64244;SDS011;50584;29.058;-110.966;2022-10-16T01:02:53;6.03;;;2.10;;
64244;SDS011;50584;29.058;-110.966;2022-10-16T01:05:20;4.47;;;1.95;;
64244;SDS011;50584;29.058;-110.966;2022-10-16T01:15:18;5.60;;;2.55;;
64244;SDS011;50584;29.058;-110.966;2022-10-16T01:17:48;12.15;;;2.95;;
64244;SDS011;50584;29.058;-110.966;2022-10-16T01:25:19;11.93;;;2.95;;
64244;SDS011;50584;29.058;-110.966;2022-10-16T01:27:48;5.22;;;1.95;;
64244;SDS011;50584;29.058;-110.966;2022-10-16T01:30:18;6.65;;;1.92;;
64244;SDS011;50584;29.058;-110.966;2022-10-16T01:33:02;11.95;;;2.33;;
64244;SDS011;50584;29.058;-110.966;2022-10-16T01:35:32;7.88;;;2.17;;
64244;SDS011;50584;29.058;-110.966;2022-10-16T01:41:01;7.00;;;2.10;;
64244;SDS011;50584;29.058;-110.966;2022-10-16T01:44:30;12.05;;;2.03;;
64244;SDS011;50584;29.058;-110.966;2022-10-16T01:46:24;4.43;;;2.00;;
64244;SDS011;50584;29.058;-110.966;2022-10-16T01:48:51;7.18;;;2.15;;
64244;SDS011;50584;29.058;-110.966;2022-10-16T01:51:17;3.50;;;2.05;;
64244;SDS011;50584;29.058;-110.966;2022-10-16T01:53:47;6.30;;;2.35;;
64244;SDS011;50584;29.058;-110.966;2022-10-16T01:56:14;7.18;;;2.55;;
64244;SDS011;50584;29.058;-110.966;2022-10-16T01:58:57;15.75;;;2.97;;
64244;SDS011;50584;29.058;-110.966;2022-10-16T02:01:25;9.05;;;2.80;;
64244;SDS011;50584;29.058;-110.966;2022-10-16T02:03:53;12.57;;;3.55;;
64244;SDS011;50584;29.058;-110.966;2022-10-16T02:06:19;5.60;;;3.20;;
64244;SDS011;50584;29.058;-110.966;2022-10-16T02:08:45;11.77;;;3.92;;
64244;SDS011;50584;29.058;-110.966;2022-10-16T02:11:11;8.30;;;2.58;;
64244;SDS011;50584;29.058;-110.966;2022-10-16T02:13:45;6.20;;;2.72;;
64244;SDS011;50584;29.058;-110.966;2022-10-16T02:16:12;5.05;;;2.80;;
64244;SDS011;50584;29.058;-110.966;2022-10-16T02:18:39;6.38;;;2.25;;
64244;SDS011;50584;29.058;-110.966;2022-10-16T02:21:16;4.18;;;2.33;;
64244;SDS011;50584;29.058;-110.966;2022-10-16T02:23:51;8.63;;;2.00;;
64244;SDS011;50584;29.058;-110.966;2022-10-16T02:29:16;3.85;;;2.08;;
64244;SDS011;50584;29.058;-110.966;2022-10-16T02:31:43;7.32;;;2.40;;
64244;SDS011;50584;29.058;-110.966;2022-10-16T02:34:10;6.70;;;2.05;;
64244;SDS011;50584;29.058;-110.966;2022-10-16T02:36:37;9.70;;;2.22;;
64244;SDS011;50584;29.058;-110.966;2022-10-16T02:39:04;6.55;;;2.20;;
64244;SDS011;50584;29.058;-110.966;2022-10-16T02:41:31;7.13;;;2.22;;
64244;SDS011;50584;29.058;-110.966;2022-10-16T02:43:57;6.43;;;2.42;;
64244;SDS011;50584;29.058;-110.966;2022-10-16T02:46:23;6.55;;;2.45;;
64244;SDS011;50584;29.058;-110.966;2022-10-16T02:48:48;6.30;;;2.22;;
64244;SDS011;50584;29.058;-110.966;2022-10-16T02:51:14;5.65;;;2.25;;
64244;SDS011;50584;29.058;-110.966;2022-10-16T02:53:40;7.32;;;3.88;;
64244;SDS011;50584;29.058;-110.966;2022-10-16T02:56:06;6.70;;;2.90;;
64244;SDS011;50584;29.058;-110.966;2022-10-16T02:58:31;6.45;;;2.13;;
64244;SDS011;50584;29.058;-110.966;2022-10-16T03:00:57;28.08;;;13.43;;
64244;SDS011;50584;29.058;-110.966;2022-10-16T03:03:23;16.77;;;5.60;;
64244;SDS011;50584;29.058;-110.966;2022-10-16T03:05:49;19.27;;;4.60;;
64244;SDS011;50584;29.058;-110.966;2022-10-16T03:08:15;6.20;;;3.15;;
64244;SDS011;50584;29.058;-110.966;2022-10-16T03:10:41;13.25;;;3.45;;
64244;SDS011;50584;29.058;-110.966;2022-10-16T03:13:07;4.93;;;2.45;;
64244;SDS011;50584;29.058;-110.966;2022-10-16T03:15:33;10.52;;;3.45;;
64244;SDS011;50584;29.058;-110.966;2022-10-16T03:17:59;3.53;;;2.65;;
64244;SDS011;50584;29.058;-110.966;2022-10-16T03:20:25;5.85;;;2.33;;
64244;SDS011;50584;29.058;-110.966;2022-10-16T03:22:51;6.07;;;2.08;;
64244;SDS011;50584;29.058;-110.966;2022-10-16T03:25:16;3.92;;;2.22;;
64244;SDS011;50584;29.058;-110.966;2022-10-16T03:27:42;3.45;;;1.90;;
64244;SDS011;50584;29.058;-110.966;2022-10-16T03:30:08;5.40;;;1.95;;
64244;SDS011;50584;29.058;-110.966;2022-10-16T03:32:34;4.70;;;2.00;;
64244;SDS011;50584;29.058;-110.966;2022-10-16T03:35:00;5.32;;;2.40;;
64244;SDS011;50584;29.058;-110.966;2022-10-16T03:37:26;8.02;;;2.80;;
64244;SDS011;50584;29.058;-110.966;2022-10-16T03:39:52;8.88;;;2.72;;
64244;SDS011;50584;29.058;-110.966;2022-10-16T03:42:18;6.97;;;2.90;;
64244;SDS011;50584;29.058;-110.966;2022-10-16T03:44:44;3.08;;;2.50;;
64244;SDS011;50584;29.058;-110.966;2022-10-16T03:47:09;9.65;;;5.28;;
64244;SDS011;50584;29.058;-110.966;2022-10-16T03:49:35;5.70;;;2.33;;
64244;SDS011;50584;29.058;-110.966;2022-10-16T03:52:01;10.13;;;4.25;;
64244;SDS011;50584;29.058;-110.966;2022-10-16T03:54:27;11.68;;;3.67;;
64244;SDS011;50584;29.058;-110.966;2022-10-16T03:56:53;3.30;;;2.78;;
64244;SDS011;50584;29.058;-110.966;2022-10-16T03:59:18;15.02;;;3.90;;
64244;SDS011;50584;29.058;-110.966;2022-10-16T04:01:44;5.53;;;2.72;;
64244;SDS011;50584;29.058;-110.966;2022-10-16T04:04:10;10.25;;;2.78;;
64244;SDS011;50584;29.058;-110.966;2022-10-16T04:06:36;7.03;;;2.85;;
64244;SDS011;50584;29.058;-110.966;2022-10-16T04:09:01;8.80;;;2.67;;
64244;SDS011;50584;29.058;-110.966;2022-10-16T04:11:27;9.20;;;3.35;;
64244;SDS011;50584;29.058;-110.966;2022-10-16T04:13:53;8.95;;;2.33;;
64244;SDS011;50584;29.058;-110.966;2022-10-16T04:16:19;7.85;;;3.00;;
64244;SDS011;50584;29.058;-110.966;2022-10-16T04:18:45;5.53;;;2.80;;
64244;SDS011;50584;29.058;-110.966;2022-10-16T04:21:10;8.73;;;2.60;;
64244;SDS011;50584;29.058;-110.966;2022-10-16T04:23:36;12.00;;;2.72;;
64244;SDS011;50584;29.058;-110.966;2022-10-16T04:26:02;6.03;;;2.72;;
64244;SDS011;50584;29.058;-110.966;2022-10-16T04:28:28;7.53;;;2.38;;
64244;SDS011;50584;29.058;-110.966;2022-10-16T04:30:54;4.57;;;2.35;;
64244;SDS011;50584;29.058;-110.966;2022-10-16T04:33:20;11.90;;;3.30;;
64244;SDS011;50584;29.058;-110.966;2022-10-16T04:35:45;7.20;;;2.75;;
64244;SDS011;50584;29.058;-110.966;2022-10-16T04:38:11;12.95;;;3.28;;
64244;SDS011;50584;29.058;-110.966;2022-10-16T04:40:37;7.30;;;2.80;;
64244;SDS011;50584;29.058;-110.966;2022-10-16T04:43:03;4.47;;;2.70;;
64244;SDS011;50584;29.058;-110.966;2022-10-16T04:45:29;3.85;;;2.33;;
64244;SDS011;50584;29.058;-110.966;2022-10-16T04:47:58;4.03;;;2.25;;
64244;SDS011;50584;29.058;-110.966;2022-10-16T04:50:24;9.57;;;2.28;;
64244;SDS011;50584;29.058;-110.966;2022-10-16T04:52:50;10.85;;;2.63;;
64244;SDS011;50584;29.058;-110.966;2022-10-16T04:55:15;3.50;;;2.03;;
64244;SDS011;50584;29.058;-110.966;2022-10-16T04:57:41;6.63;;;2.20;;
64244;SDS011;50584;29.058;-110.966;2022-10-16T05:00:07;3.60;;;2.15;;
64244;SDS011;50584;29.058;-110.966;2022-10-16T05:02:33;9.85;;;2.60;;
64244;SDS011;50584;29.058;-110.966;2022-10-16T05:04:59;7.97;;;2.50;;
64244;SDS011;50584;29.058;-110.966;2022-10-16T05:07:25;5.60;;;2.67;;
64244;SDS011;50584;29.058;-110.966;2022-10-16T05:09:51;8.38;;;4.20;;
64244;SDS011;50584;29.058;-110.966;2022-10-16T05:12:16;9.15;;;2.75;;
64244;SDS011;50584;29.058;-110.966;2022-10-16T05:14:42;9.27;;;2.70;;
64244;SDS011;50584;29.058;-110.966;2022-10-16T05:17:08;8.30;;;2.88;;
64244;SDS011;50584;29.058;-110.966;2022-10-16T05:19:34;21.90;;;5.22;;
64244;SDS011;50584;29.058;-110.966;2022-10-16T05:22:00;7.90;;;2.47;;
64244;SDS011;50584;29.058;-110.966;2022-10-16T05:24:26;4.18;;;2.20;;
64244;SDS011;50584;29.058;-110.966;2022-10-16T05:26:52;7.22;;;3.38;;
64244;SDS011;50584;29.058;-110.966;2022-10-16T05:29:18;8.25;;;2.22;;
64244;SDS011;50584;29.058;-110.966;2022-10-16T05:31:44;2.58;;;2.00;;
64244;SDS011;50584;29.058;-110.966;2022-10-16T05:34:09;6.60;;;2.55;;
64244;SDS011;50584;29.058;-110.966;2022-10-16T05:36:36;5.15;;;2.00;;
64244;SDS011;50584;29.058;-110.966;2022-10-16T05:39:02;2.55;;;1.77;;
64244;SDS011;50584;29.058;-110.966;2022-10-16T05:41:28;5.60;;;1.98;;
64244;SDS011;50584;29.058;-110.966;2022-10-16T05:43:54;2.85;;;1.90;;
64244;SDS011;50584;29.058;-110.966;2022-10-16T05:46:20;5.25;;;2.30;;
64244;SDS011;50584;29.058;-110.966;2022-10-16T05:48:45;4.47;;;1.80;;
64244;SDS011;50584;29.058;-110.966;2022-10-16T05:51:12;3.05;;;2.03;;
64244;SDS011;50584;29.058;-110.966;2022-10-16T05:53:38;7.72;;;2.30;;
64244;SDS011;50584;29.058;-110.966;2022-10-16T05:56:05;4.45;;;2.47;;
64244;SDS011;50584;29.058;-110.966;2022-10-16T05:58:32;12.48;;;3.00;;
64244;SDS011;50584;29.058;-110.966;2022-10-16T06:00:59;6.82;;;2.40;;
64244;SDS011;50584;29.058;-110.966;2022-10-16T06:03:25;11.27;;;2.83;;
64244;SDS011;50584;29.058;-110.966;2022-10-16T06:05:51;5.32;;;2.50;;
64244;SDS011;50584;29.058;-110.966;2022-10-16T06:08:17;11.32;;;3.00;;
64244;SDS011;50584;29.058;-110.966;2022-10-16T06:10:43;5.32;;;2.42;;
64244;SDS011;50584;29.058;-110.966;2022-10-16T06:13:09;6.10;;;2.40;;
64244;SDS011;50584;29.058;-110.966;2022-10-16T06:15:35;6.20;;;2.85;;
64244;SDS011;50584;29.058;-110.966;2022-10-16T06:18:01;9.10;;;2.60;;
64244;SDS011;50584;29.058;-110.966;2022-10-16T06:20:27;8.75;;;2.58;;
64244;SDS011;50584;29.058;-110.966;2022-10-16T06:22:53;11.00;;;2.75;;
64244;SDS011;50584;29.058;-110.966;2022-10-16T06:25:18;7.38;;;2.40;;
64244;SDS011;50584;29.058;-110.966;2022-10-16T06:27:44;9.75;;;2.65;;
64244;SDS011;50584;29.058;-110.966;2022-10-16T06:30:10;12.20;;;2.45;;
64244;SDS011;50584;29.058;-110.966;2022-10-16T06:32:36;9.82;;;2.38;;
64244;SDS011;50584;29.058;-110.966;2022-10-16T06:35:01;5.13;;;2.40;;
64244;SDS011;50584;29.058;-110.966;2022-10-16T06:37:27;3.50;;;2.28;;
64244;SDS011;50584;29.058;-110.966;2022-10-16T06:39:53;3.13;;;2.22;;
64244;SDS011;50584;29.058;-110.966;2022-10-16T06:42:19;5.22;;;2.28;;
64244;SDS011;50584;29.058;-110.966;2022-10-16T06:44:45;11.23;;;2.80;;
64244;SDS011;50584;29.058;-110.966;2022-10-16T06:47:10;6.43;;;2.25;;
64244;SDS011;50584;29.058;-110.966;2022-10-16T06:49:36;10.32;;;2.15;;
64244;SDS011;50584;29.058;-110.966;2022-10-16T06:52:02;3.65;;;2.30;;
64244;SDS011;50584;29.058;-110.966;2022-10-16T06:54:28;8.30;;;2.17;;
64244;SDS011;50584;29.058;-110.966;2022-10-16T06:56:54;4.53;;;2.30;;
64244;SDS011;50584;29.058;-110.966;2022-10-16T06:59:20;8.50;;;2.38;;
64244;SDS011;50584;29.058;-110.966;2022-10-16T07:01:47;9.77;;;2.33;;
64244;SDS011;50584;29.058;-110.966;2022-10-16T07:04:13;9.25;;;2.33;;
64244;SDS011;50584;29.058;-110.966;2022-10-16T07:06:38;5.45;;;2.28;;
64244;SDS011;50584;29.058;-110.966;2022-10-16T07:09:05;4.60;;;2.72;;
64244;SDS011;50584;29.058;-110.966;2022-10-16T07:11:31;3.50;;;2.70;;
64244;SDS011;50584;29.058;-110.966;2022-10-16T07:13:57;3.47;;;2.20;;
64244;SDS011;50584;29.058;-110.966;2022-10-16T07:16:24;4.70;;;2.25;;
64244;SDS011;50584;29.058;-110.966;2022-10-16T07:18:50;4.63;;;2.10;;
64244;SDS011;50584;29.058;-110.966;2022-10-16T07:21:18;6.00;;;2.40;;
64244;SDS011;50584;29.058;-110.966;2022-10-16T07:23:49;4.65;;;2.70;;
64244;SDS011;50584;29.058;-110.966;2022-10-16T07:26:15;5.80;;;2.85;;
64244;SDS011;50584;29.058;-110.966;2022-10-16T07:28:41;5.20;;;3.35;;
64244;SDS011;50584;29.058;-110.966;2022-10-16T07:31:09;8.80;;;4.47;;
64244;SDS011;50584;29.058;-110.966;2022-10-16T07:36:04;17.50;;;6.38;;
64244;SDS011;50584;29.058;-110.966;2022-10-16T07:38:30;9.13;;;6.00;;
64244;SDS011;50584;29.058;-110.966;2022-10-16T07:40:56;13.40;;;6.28;;
64244;SDS011;50584;29.058;-110.966;2022-10-16T07:43:23;13.05;;;6.82;;
64244;SDS011;50584;29.058;-110.966;2022-10-16T07:45:49;13.95;;;7.45;;
64244;SDS011;50584;29.058;-110.966;2022-10-16T07:48:15;13.15;;;7.03;;
64244;SDS011;50584;29.058;-110.966;2022-10-16T07:50:41;15.05;;;5.72;;
64244;SDS011;50584;29.058;-110.966;2022-10-16T07:53:07;9.50;;;5.05;;
64244;SDS011;50584;29.058;-110.966;2022-10-16T07:55:33;12.30;;;4.60;;
64244;SDS011;50584;29.058;-110.966;2022-10-16T07:57:59;11.95;;;4.28;;
64244;SDS011;50584;29.058;-110.966;2022-10-16T08:00:24;6.45;;;3.47;;
64244;SDS011;50584;29.058;-110.966;2022-10-16T08:02:50;7.43;;;3.70;;
64244;SDS011;50584;29.058;-110.966;2022-10-16T08:05:16;12.05;;;3.85;;
64244;SDS011;50584;29.058;-110.966;2022-10-16T08:07:42;7.82;;;3.70;;
64244;SDS011;50584;29.058;-110.966;2022-10-16T08:10:12;6.00;;;3.47;;
64244;SDS011;50584;29.058;-110.966;2022-10-16T08:12:41;5.53;;;3.40;;
64244;SDS011;50584;29.058;-110.966;2022-10-16T08:15:06;7.25;;;3.55;;
64244;SDS011;50584;29.058;-110.966;2022-10-16T08:17:32;10.07;;;4.60;;
64244;SDS011;50584;29.058;-110.966;2022-10-16T08:19:58;9.38;;;3.33;;
64244;SDS011;50584;29.058;-110.966;2022-10-16T08:22:24;5.55;;;3.60;;
64244;SDS011;50584;29.058;-110.966;2022-10-16T08:24:50;5.65;;;3.50;;
64244;SDS011;50584;29.058;-110.966;2022-10-16T08:27:15;14.00;;;6.28;;
64244;SDS011;50584;29.058;-110.966;2022-10-16T08:29:41;9.60;;;5.20;;
64244;SDS011;50584;29.058;-110.966;2022-10-16T08:32:07;9.43;;;4.72;;
64244;SDS011;50584;29.058;-110.966;2022-10-16T08:34:33;8.00;;;4.07;;
64244;SDS011;50584;29.058;-110.966;2022-10-16T08:36:58;6.78;;;4.43;;
64244;SDS011;50584;29.058;-110.966;2022-10-16T08:39:24;10.50;;;3.60;;
64244;SDS011;50584;29.058;-110.966;2022-10-16T08:42:08;6.55;;;3.63;;
64244;SDS011;50584;29.058;-110.966;2022-10-16T08:49:34;7.50;;;3.53;;
64244;SDS011;50584;29.058;-110.966;2022-10-16T08:52:01;8.27;;;3.33;;
64244;SDS011;50584;29.058;-110.966;2022-10-16T08:54:31;9.20;;;3.40;;
64244;SDS011;50584;29.058;-110.966;2022-10-16T08:57:04;9.55;;;2.97;;
64244;SDS011;50584;29.058;-110.966;2022-10-16T08:59:32;9.18;;;2.70;;
64244;SDS011;50584;29.058;-110.966;2022-10-16T09:01:58;4.18;;;2.38;;
64244;SDS011;50584;29.058;-110.966;2022-10-16T09:07:17;10.98;;;2.67;;
64244;SDS011;50584;29.058;-110.966;2022-10-16T09:12:15;4.95;;;2.53;;
64244;SDS011;50584;29.058;-110.966;2022-10-16T09:17:16;11.73;;;2.72;;
64244;SDS011;50584;29.058;-110.966;2022-10-16T09:19:46;5.72;;;2.70;;
64244;SDS011;50584;29.058;-110.966;2022-10-16T09:22:16;5.53;;;2.55;;
64244;SDS011;50584;29.058;-110.966;2022-10-16T09:24:42;3.70;;;2.45;;
64244;SDS011;50584;29.058;-110.966;2022-10-16T09:27:11;5.20;;;3.00;;
64244;SDS011;50584;29.058;-110.966;2022-10-16T09:29:37;5.15;;;2.58;;
64244;SDS011;50584;29.058;-110.966;2022-10-16T09:32:21;5.72;;;2.55;;
64244;SDS011;50584;29.058;-110.966;2022-10-16T09:34:48;4.70;;;2.65;;
64244;SDS011;50584;29.058;-110.966;2022-10-16T09:37:17;5.53;;;2.78;;
64244;SDS011;50584;29.058;-110.966;2022-10-16T09:39:44;4.78;;;2.38;;
64244;SDS011;50584;29.058;-110.966;2022-10-16T09:42:13;10.07;;;3.00;;
64244;SDS011;50584;29.058;-110.966;2022-10-16T09:44:39;6.60;;;2.97;;
64244;SDS011;50584;29.058;-110.966;2022-10-16T09:49:37;5.15;;;3.28;;
64244;SDS011;50584;29.058;-110.966;2022-10-16T09:52:09;4.90;;;2.40;;
64244;SDS011;50584;29.058;-110.966;2022-10-16T09:54:36;6.72;;;3.22;;
64244;SDS011;50584;29.058;-110.966;2022-10-16T09:57:06;3.90;;;2.60;;
64244;SDS011;50584;29.058;-110.966;2022-10-16T09:59:32;9.83;;;3.00;;
64244;SDS011;50584;29.058;-110.966;2022-10-16T10:02:01;8.93;;;3.08;;
64244;SDS011;50584;29.058;-110.966;2022-10-16T10:04:36;16.05;;;2.72;;
64244;SDS011;50584;29.058;-110.966;2022-10-16T10:07:02;10.68;;;2.53;;
64244;SDS011;50584;29.058;-110.966;2022-10-16T10:09:32;8.82;;;2.88;;
64244;SDS011;50584;29.058;-110.966;2022-10-16T10:12:03;3.70;;;2.63;;
64244;SDS011;50584;29.058;-110.966;2022-10-16T10:14:31;6.90;;;2.67;;
64244;SDS011;50584;29.058;-110.966;2022-10-16T10:17:06;5.80;;;2.75;;
64244;SDS011;50584;29.058;-110.966;2022-10-16T10:19:53;4.60;;;2.80;;
64244;SDS011;50584;29.058;-110.966;2022-10-16T10:25:50;7.00;;;3.05;;
64244;SDS011;50584;29.058;-110.966;2022-10-16T10:35:45;5.72;;;2.80;;
64244;SDS011;50584;29.058;-110.966;2022-10-16T10:45:54;6.55;;;2.88;;
64244;SDS011;50584;29.058;-110.966;2022-10-16T10:48:30;5.72;;;3.15;;
64244;SDS011;50584;29.058;-110.966;2022-10-16T10:51:08;9.73;;;3.55;;
64244;SDS011;50584;29.058;-110.966;2022-10-16T10:53:52;12.52;;;3.75;;
64244;SDS011;50584;29.058;-110.966;2022-10-16T10:56:35;8.73;;;3.50;;
64244;SDS011;50584;29.058;-110.966;2022-10-16T11:02:13;5.50;;;3.70;;
64244;SDS011;50584;29.058;-110.966;2022-10-16T11:07:04;10.23;;;4.07;;
64244;SDS011;50584;29.058;-110.966;2022-10-16T11:09:32;9.88;;;3.40;;
64244;SDS011;50584;29.058;-110.966;2022-10-16T11:22:03;5.22;;;3.70;;
64244;SDS011;50584;29.058;-110.966;2022-10-16T11:24:35;12.73;;;4.20;;
64244;SDS011;50584;29.058;-110.966;2022-10-16T11:27:03;5.32;;;4.25;;
64244;SDS011;50584;29.058;-110.966;2022-10-16T11:29:30;8.90;;;3.63;;
64244;SDS011;50584;29.058;-110.966;2022-10-16T11:31:59;12.38;;;4.00;;
64244;SDS011;50584;29.058;-110.966;2022-10-16T11:34:38;5.50;;;3.75;;
64244;SDS011;50584;29.058;-110.966;2022-10-16T11:37:09;7.53;;;3.90;;
64244;SDS011;50584;29.058;-110.966;2022-10-16T11:39:36;5.22;;;3.80;;
64244;SDS011;50584;29.058;-110.966;2022-10-16T11:42:22;7.22;;;3.75;;
64244;SDS011;50584;29.058;-110.966;2022-10-16T11:50:01;5.70;;;4.00;;
64244;SDS011;50584;29.058;-110.966;2022-10-16T11:52:40;5.63;;;3.58;;
64244;SDS011;50584;29.058;-110.966;2022-10-16T11:57:33;8.75;;;3.65;;
64244;SDS011;50584;29.058;-110.966;2022-10-16T12:00:05;7.57;;;3.50;;
64244;SDS011;50584;29.058;-110.966;2022-10-16T12:07:49;9.73;;;3.80;;
64244;SDS011;50584;29.058;-110.966;2022-10-16T12:10:21;5.40;;;3.13;;
64244;SDS011;50584;29.058;-110.966;2022-10-16T12:12:47;9.98;;;3.53;;
64244;SDS011;50584;29.058;-110.966;2022-10-16T12:15:26;7.80;;;3.30;;
64244;SDS011;50584;29.058;-110.966;2022-10-16T12:17:52;5.10;;;3.35;;
64244;SDS011;50584;29.058;-110.966;2022-10-16T12:20:23;8.50;;;3.60;;
64244;SDS011;50584;29.058;-110.966;2022-10-16T12:23:00;7.93;;;4.07;;
64244;SDS011;50584;29.058;-110.966;2022-10-16T12:25:31;7.32;;;3.88;;
64244;SDS011;50584;29.058;-110.966;2022-10-16T12:30:27;4.00;;;3.70;;
64244;SDS011;50584;29.058;-110.966;2022-10-16T12:32:55;6.80;;;3.95;;
64244;SDS011;50584;29.058;-110.966;2022-10-16T12:35:28;4.13;;;3.63;;
64244;SDS011;50584;29.058;-110.966;2022-10-16T12:38:04;8.48;;;3.85;;
64244;SDS011;50584;29.058;-110.966;2022-10-16T12:40:31;13.68;;;4.72;;
64244;SDS011;50584;29.058;-110.966;2022-10-16T12:42:58;7.50;;;3.65;;
64244;SDS011;50584;29.058;-110.966;2022-10-16T12:47:53;6.68;;;3.53;;
64244;SDS011;50584;29.058;-110.966;2022-10-16T12:50:27;5.68;;;3.60;;
64244;SDS011;50584;29.058;-110.966;2022-10-16T12:52:53;4.53;;;3.92;;
64244;SDS011;50584;29.058;-110.966;2022-10-16T12:55:19;8.30;;;4.00;;
64244;SDS011;50584;29.058;-110.966;2022-10-16T13:08:42;14.20;;;6.70;;
64244;SDS011;50584;29.058;-110.966;2022-10-16T13:11:41;9.57;;;4.97;;
64244;SDS011;50584;29.058;-110.966;2022-10-16T13:27:45;8.63;;;5.10;;
64244;SDS011;50584;29.058;-110.966;2022-10-16T13:30:16;10.15;;;5.30;;
64244;SDS011;50584;29.058;-110.966;2022-10-16T13:32:49;10.65;;;5.43;;
64244;SDS011;50584;29.058;-110.966;2022-10-16T13:35:20;9.85;;;5.90;;
64244;SDS011;50584;29.058;-110.966;2022-10-16T13:37:46;11.77;;;5.30;;
64244;SDS011;50584;29.058;-110.966;2022-10-16T13:40:19;13.60;;;5.82;;
64244;SDS011;50584;29.058;-110.966;2022-10-16T13:42:45;11.00;;;5.85;;
64244;SDS011;50584;29.058;-110.966;2022-10-16T13:45:18;11.05;;;5.47;;
64244;SDS011;50584;29.058;-110.966;2022-10-16T13:47:44;11.27;;;5.50;;
64244;SDS011;50584;29.058;-110.966;2022-10-16T13:50:14;18.10;;;6.78;;
64244;SDS011;50584;29.058;-110.966;2022-10-16T13:52:40;12.95;;;5.63;;
64244;SDS011;50584;29.058;-110.966;2022-10-16T13:55:13;18.80;;;6.88;;
64244;SDS011;50584;29.058;-110.966;2022-10-16T13:57:40;11.57;;;6.72;;
64244;SDS011;50584;29.058;-110.966;2022-10-16T14:05:12;16.10;;;8.23;;
64244;SDS011;50584;29.058;-110.966;2022-10-16T14:07:39;22.70;;;8.50;;
64244;SDS011;50584;29.058;-110.966;2022-10-16T14:10:07;13.98;;;8.13;;
64244;SDS011;50584;29.058;-110.966;2022-10-16T14:12:43;22.17;;;12.13;;
64244;SDS011;50584;29.058;-110.966;2022-10-16T14:15:16;22.60;;;13.25;;
64244;SDS011;50584;29.058;-110.966;2022-10-16T14:17:43;21.67;;;11.73;;
64244;SDS011;50584;29.058;-110.966;2022-10-16T14:20:12;20.13;;;9.18;;
64244;SDS011;50584;29.058;-110.966;2022-10-16T14:22:40;20.30;;;7.78;;
64244;SDS011;50584;29.058;-110.966;2022-10-16T14:27:41;26.15;;;15.15;;
64244;SDS011;50584;29.058;-110.966;2022-10-16T14:30:17;24.80;;;10.52;;
64244;SDS011;50584;29.058;-110.966;2022-10-16T14:32:59;14.50;;;7.60;;
64244;SDS011;50584;29.058;-110.966;2022-10-16T14:35:27;19.80;;;6.90;;
64244;SDS011;50584;29.058;-110.966;2022-10-16T14:37:54;10.52;;;5.88;;
64244;SDS011;50584;29.058;-110.966;2022-10-16T14:40:20;12.82;;;6.95;;
64244;SDS011;50584;29.058;-110.966;2022-10-16T14:42:48;19.60;;;13.38;;
64244;SDS011;50584;29.058;-110.966;2022-10-16T14:45:17;56.42;;;31.60;;
64244;SDS011;50584;29.058;-110.966;2022-10-16T14:48:00;27.20;;;17.83;;
64244;SDS011;50584;29.058;-110.966;2022-10-16T14:50:26;21.10;;;12.45;;
64244;SDS011;50584;29.058;-110.966;2022-10-16T14:52:52;29.27;;;10.13;;
64244;SDS011;50584;29.058;-110.966;2022-10-16T14:55:18;11.25;;;7.40;;
64244;SDS011;50584;29.058;-110.966;2022-10-16T14:57:44;13.07;;;6.90;;
64244;SDS011;50584;29.058;-110.966;2022-10-16T15:00:13;31.58;;;7.45;;
64244;SDS011;50584;29.058;-110.966;2022-10-16T15:02:40;14.93;;;7.05;;
64244;SDS011;50584;29.058;-110.966;2022-10-16T15:05:12;10.05;;;6.18;;
64244;SDS011;50584;29.058;-110.966;2022-10-16T15:07:37;12.00;;;6.35;;
64244;SDS011;50584;29.058;-110.966;2022-10-16T15:10:03;12.30;;;5.63;;
64244;SDS011;50584;29.058;-110.966;2022-10-16T15:12:29;12.80;;;5.93;;
64244;SDS011;50584;29.058;-110.966;2022-10-16T15:14:55;10.70;;;5.28;;
64244;SDS011;50584;29.058;-110.966;2022-10-16T15:17:21;8.98;;;5.07;;
64244;SDS011;50584;29.058;-110.966;2022-10-16T15:19:46;11.82;;;4.72;;
64244;SDS011;50584;29.058;-110.966;2022-10-16T15:22:12;9.80;;;5.15;;
64244;SDS011;50584;29.058;-110.966;2022-10-16T15:24:38;11.95;;;4.95;;
64244;SDS011;50584;29.058;-110.966;2022-10-16T15:27:04;13.18;;;5.00;;
64244;SDS011;50584;29.058;-110.966;2022-10-16T15:29:30;6.72;;;4.20;;
64244;SDS011;50584;29.058;-110.966;2022-10-16T15:31:56;5.00;;;3.92;;
64244;SDS011;50584;29.058;-110.966;2022-10-16T15:34:22;8.27;;;4.45;;
64244;SDS011;50584;29.058;-110.966;2022-10-16T15:36:47;8.00;;;4.13;;
64244;SDS011;50584;29.058;-110.966;2022-10-16T15:39:17;7.32;;;4.03;;
64244;SDS011;50584;29.058;-110.966;2022-10-16T15:41:44;11.32;;;3.45;;
64244;SDS011;50584;29.058;-110.966;2022-10-16T15:44:10;10.82;;;4.10;;
64244;SDS011;50584;29.058;-110.966;2022-10-16T15:46:36;9.23;;;4.07;;
64244;SDS011;50584;29.058;-110.966;2022-10-16T15:49:02;5.65;;;3.78;;
64244;SDS011;50584;29.058;-110.966;2022-10-16T15:51:28;6.18;;;3.63;;
64244;SDS011;50584;29.058;-110.966;2022-10-16T15:53:57;8.60;;;4.03;;
64244;SDS011;50584;29.058;-110.966;2022-10-16T15:56:24;11.32;;;4.07;;
64244;SDS011;50584;29.058;-110.966;2022-10-16T15:58:53;12.00;;;3.67;;
64244;SDS011;50584;29.058;-110.966;2022-10-16T16:01:19;13.15;;;4.88;;
64244;SDS011;50584;29.058;-110.966;2022-10-16T16:03:45;8.68;;;3.90;;
64244;SDS011;50584;29.058;-110.966;2022-10-16T16:06:12;13.52;;;4.25;;
64244;SDS011;50584;29.058;-110.966;2022-10-16T16:08:38;7.85;;;3.60;;
64244;SDS011;50584;29.058;-110.966;2022-10-16T16:11:08;9.48;;;3.60;;